Time;durP1;ratioP1;P1;durP2;ratioP2;P2;SDS_P1;SDS_P2;PMS_P1;PMS_P2;Temp;Humidity;BMP_temperature;BMP_pressure;BME280_temperature;BME280_humidity;BME280_pressure;Samples;Min_cycle;Max_cycle;Signal;HPM_P1;HPM_P2
2023/02/16 00:00:43;;;;;;;27.25;11.70;;;1.20;99.90;;;;;;5065882;28;20028;-74
2023/02/16 00:03:13;;;;;;;37.20;11.97;;;1.30;99.90;;;;;;5055436;28;20033;-74
2023/02/16 00:05:38;;;;;;;39.07;12.93;;;1.30;99.90;;;;;;5072872;28;20021;-74
2023/02/16 00:08:04;;;;;;;35.80;12.07;;;1.20;99.90;;;;;;5061827;28;20033;-74
2023/02/16 00:10:32;;;;;;;29.13;11.73;;;1.20;99.90;;;;;;5051111;28;20068;-74
2023/02/16 00:15:44;;;;;;;25.67;11.00;;;1.10;99.90;;;;;;5065704;28;20060;-77
2023/02/16 00:18:20;;;;;;;27.43;11.70;;;1.10;99.90;;;;;;5062075;28;20143;-77
2023/02/16 00:20:48;;;;;;;26.63;12.13;;;1.10;99.90;;;;;;5071450;28;20035;-75
2023/02/16 00:23:13;;;;;;;34.87;12.37;;;1.00;99.90;;;;;;5070935;28;20028;-72
2023/02/16 00:25:39;;;;;;;24.20;11.07;;;1.00;99.90;;;;;;5071063;28;20026;-74
2023/02/16 00:28:13;;;;;;;22.63;10.70;;;1.00;99.90;;;;;;5060722;28;20033;-74
2023/02/16 00:30:39;;;;;;;21.60;10.63;;;1.00;99.90;;;;;;5052014;28;20021;-74
2023/02/16 00:33:14;;;;;;;27.63;10.57;;;1.00;99.90;;;;;;5056720;28;20021;-73
2023/02/16 00:35:39;;;;;;;28.23;10.77;;;1.10;99.90;;;;;;5054991;28;20067;-74
2023/02/16 00:38:05;;;;;;;26.97;11.57;;;1.10;99.90;;;;;;5050416;28;20072;-74
2023/02/16 00:40:30;;;;;;;26.37;11.27;;;1.10;99.90;;;;;;5050761;28;20467;-74
2023/02/16 00:42:56;;;;;;;22.90;11.43;;;1.10;99.90;;;;;;5067186;28;20047;-74
2023/02/16 00:45:23;;;;;;;25.17;11.60;;;1.00;99.90;;;;;;5067936;28;20066;-73
2023/02/16 00:47:51;;;;;;;27.63;11.20;;;1.00;99.90;;;;;;5058503;28;20440;-72
2023/02/16 00:50:24;;;;;;;29.17;11.83;;;1.10;99.90;;;;;;5071600;28;20454;-74
2023/02/16 00:52:50;;;;;;;25.70;11.90;;;1.10;99.90;;;;;;5054658;28;20032;-76
2023/02/16 00:55:21;;;;;;;26.30;12.37;;;1.10;99.90;;;;;;5051898;28;20029;-74
2023/02/16 00:58:09;;;;;;;27.13;11.50;;;1.10;99.90;;;;;;5059956;28;20416;-74
2023/02/16 01:00:39;;;;;;;38.03;12.23;;;1.10;99.90;;;;;;5070911;28;20048;-74
2023/02/16 01:03:08;;;;;;;23.13;11.10;;;1.10;99.90;;;;;;5070210;28;20063;-74
2023/02/16 01:05:33;;;;;;;24.07;11.57;;;1.10;99.90;;;;;;5050611;28;20029;-75
2023/02/16 01:13:30;;;;;;;27.90;11.60;;;1.10;99.90;;;;;;5056316;28;20515;-74
2023/02/16 01:15:56;;;;;;;22.30;11.53;;;1.10;99.90;;;;;;5062426;28;20056;-75
2023/02/16 01:18:22;;;;;;;35.33;12.40;;;1.10;99.90;;;;;;5050625;28;20474;-75
2023/02/16 01:20:47;;;;;;;34.60;13.13;;;1.10;99.90;;;;;;5065513;28;20512;-75
2023/02/16 01:23:13;;;;;;;35.20;13.23;;;1.00;99.90;;;;;;5053638;28;20100;-75
2023/02/16 01:25:39;;;;;;;29.07;12.80;;;1.00;99.90;;;;;;5066192;28;20025;-75
2023/02/16 01:28:35;;;;;;;33.13;13.27;;;1.00;99.90;;;;;;5063838;28;20098;-73
2023/02/16 01:31:00;;;;;;;30.97;12.77;;;1.00;99.90;;;;;;5054932;28;20036;-74
2023/02/16 01:33:26;;;;;;;30.87;13.17;;;1.00;99.90;;;;;;5065581;28;20024;-74
2023/02/16 01:35:54;;;;;;;30.57;12.50;;;1.10;99.90;;;;;;5073198;28;20079;-77
2023/02/16 01:38:22;;;;;;;33.77;13.10;;;1.10;99.90;;;;;;5062243;28;20037;-74
2023/02/16 01:40:51;;;;;;;27.63;12.67;;;1.10;99.90;;;;;;5069180;28;20024;-73
2023/02/16 01:43:25;;;;;;;30.13;12.53;;;1.10;99.90;;;;;;5054489;28;20029;-75
2023/02/16 01:46:04;;;;;;;34.40;13.20;;;1.10;99.90;;;;;;5055554;28;20036;-78
2023/02/16 01:48:31;;;;;;;38.03;12.93;;;1.10;99.90;;;;;;5054714;28;20028;-76
2023/02/16 01:51:05;;;;;;;28.47;12.90;;;1.10;99.90;;;;;;5064520;28;20099;-76
2023/02/16 01:53:52;;;;;;;38.27;13.17;;;1.10;99.90;;;;;;5074369;28;20056;-76
2023/02/16 01:56:38;;;;;;;28.80;12.23;;;1.10;99.90;;;;;;5074260;28;20029;-75
2023/02/16 01:59:18;;;;;;;37.73;13.83;;;1.10;99.90;;;;;;5075258;28;20093;-76
2023/02/16 02:01:53;;;;;;;29.73;13.13;;;1.00;99.90;;;;;;5068822;28;20031;-75
2023/02/16 02:07:54;;;;;;;31.67;12.73;;;1.00;99.90;;;;;;5042214;28;20047;-74
2023/02/16 02:10:34;;;;;;;37.40;13.27;;;1.00;99.90;;;;;;5066893;28;20039;-74
2023/02/16 02:13:07;;;;;;;52.87;14.00;;;1.00;99.90;;;;;;5056671;28;20033;-74
2023/02/16 02:15:33;;;;;;;39.87;13.07;;;1.00;99.90;;;;;;5067972;28;20063;-73
2023/02/16 02:17:59;;;;;;;40.10;13.60;;;1.00;99.90;;;;;;5053268;28;20037;-74
2023/02/16 02:23:51;;;;;;;29.43;13.37;;;0.90;99.90;;;;;;5075749;28;20800;-78
2023/02/16 02:26:35;;;;;;;40.43;13.70;;;1.00;99.90;;;;;;5074622;28;20020;-78
2023/02/16 02:29:25;;;;;;;44.73;15.07;;;1.00;99.90;;;;;;5075365;28;20025;-78
2023/02/16 02:32:00;;;;;;;35.00;13.03;;;0.90;99.90;;;;;;5066569;28;20021;-79
2023/02/16 02:34:42;;;;;;;35.33;12.67;;;1.00;99.90;;;;;;5055946;28;20021;-79
2023/02/16 02:37:10;;;;;;;42.63;14.27;;;1.00;99.90;;;;;;5052848;28;20056;-78
2023/02/16 02:40:12;;;;;;;41.83;14.20;;;1.00;99.90;;;;;;5060485;28;20074;-80
2023/02/16 02:43:01;;;;;;;36.72;13.00;;;1.00;99.90;;;;;;5058782;28;20501;-74
2023/02/16 02:45:35;;;;;;;30.33;13.27;;;1.00;99.90;;;;;;5069495;28;20367;-75
2023/02/16 02:48:01;;;;;;;32.47;13.03;;;1.00;99.90;;;;;;5061344;28;20397;-74
2023/02/16 03:02:39;;;;;;;41.17;13.33;;;1.00;99.90;;;;;;5068184;28;20070;-77
2023/02/16 03:05:08;;;;;;;35.70;13.67;;;1.00;99.90;;;;;;5055691;28;20111;-78
2023/02/16 03:07:48;;;;;;;35.13;14.47;;;1.00;99.90;;;;;;5073322;28;20057;-77
2023/02/16 03:13:09;;;;;;;31.80;13.47;;;1.00;99.90;;;;;;5055778;28;20068;-75
2023/02/16 03:15:35;;;;;;;;;;;0.90;99.90;;;;;;5059391;28;20017;-74
2023/02/16 03:29:20;;;;;;;32.27;12.57;;;0.90;99.90;;;;;;5053133;28;20094;-75
2023/02/16 03:31:50;;;;;;;32.00;13.27;;;1.00;99.90;;;;;;5051896;28;20025;-74
2023/02/16 03:34:18;;;;;;;28.67;13.27;;;0.90;99.90;;;;;;5050189;28;20033;-74
2023/02/16 03:36:49;;;;;;;25.07;12.30;;;1.00;99.90;;;;;;5031984;28;20050;-74
2023/02/16 03:39:16;;;;;;;28.98;13.52;;;0.90;99.90;;;;;;5031791;28;20447;-75
2023/02/16 03:41:49;;;;;;;28.10;13.10;;;0.90;99.90;;;;;;5032536;28;20069;-74
2023/02/16 03:44:15;;;;;;;30.30;12.93;;;1.00;99.90;;;;;;5032959;28;20101;-74
2023/02/16 03:46:40;;;;;;;29.00;12.83;;;1.00;99.90;;;;;;5032344;28;20432;-75
2023/02/16 03:49:06;;;;;;;25.93;11.73;;;1.00;99.90;;;;;;5032686;28;20095;-74
2023/02/16 03:51:32;;;;;;;29.87;13.07;;;1.00;99.90;;;;;;5031917;28;20029;-75
2023/02/16 03:53:57;;;;;;;31.33;12.87;;;1.00;99.90;;;;;;5047834;28;20025;-76
2023/02/16 03:56:23;;;;;;;33.53;13.37;;;1.00;99.90;;;;;;5032132;28;20030;-75
2023/02/16 03:58:49;;;;;;;28.83;12.20;;;0.90;99.90;;;;;;5031969;28;20033;-75
2023/02/16 04:01:14;;;;;;;27.87;12.87;;;0.90;99.90;;;;;;5031164;28;20087;-74
2023/02/16 04:03:40;;;;;;;26.73;13.03;;;0.90;99.90;;;;;;5031987;28;20451;-75
2023/02/16 04:06:06;;;;;;;28.00;12.57;;;0.90;99.90;;;;;;5031260;28;20026;-75
2023/02/16 04:08:31;;;;;;;30.03;13.33;;;0.90;99.90;;;;;;5032216;28;20037;-74
2023/02/16 04:10:57;;;;;;;31.10;13.93;;;0.90;99.90;;;;;;5032647;28;20064;-76
2023/02/16 04:13:23;;;;;;;25.53;12.70;;;0.90;99.90;;;;;;5048597;28;20022;-74
2023/02/16 04:15:49;;;;;;;29.50;13.53;;;0.90;99.90;;;;;;5064121;28;20029;-75
2023/02/16 04:18:15;;;;;;;31.90;12.97;;;0.90;99.90;;;;;;5050629;28;20093;-74
2023/02/16 04:20:40;;;;;;;29.43;12.83;;;0.80;99.90;;;;;;5052804;28;20048;-74
2023/02/16 04:23:06;;;;;;;25.93;12.33;;;0.80;99.90;;;;;;5050696;28;20467;-74
2023/02/16 04:25:32;;;;;;;26.70;13.03;;;0.80;99.90;;;;;;5051292;28;20048;-74
2023/02/16 04:27:57;;;;;;;33.00;12.87;;;0.80;99.90;;;;;;5051864;28;20029;-77
2023/02/16 04:30:27;;;;;;;27.20;12.70;;;0.80;99.90;;;;;;5051186;28;20027;-74
2023/02/16 04:32:53;;;;;;;30.63;12.23;;;0.80;99.90;;;;;;5052334;28;20033;-74
2023/02/16 04:35:19;;;;;;;28.23;12.17;;;0.80;99.90;;;;;;5051641;28;20045;-75
2023/02/16 04:37:45;;;;;;;25.87;12.40;;;0.80;99.90;;;;;;5051104;28;20036;-75
2023/02/16 04:40:12;;;;;;;26.83;12.20;;;0.80;99.90;;;;;;5050391;28;20040;-75
2023/02/16 04:42:42;;;;;;;29.87;12.70;;;0.80;99.90;;;;;;5051134;28;20462;-75
2023/02/16 04:45:09;;;;;;;26.53;12.87;;;0.80;99.90;;;;;;5050373;28;20021;-75
2023/02/16 04:47:34;;;;;;;30.00;13.57;;;0.80;99.90;;;;;;5050998;28;20474;-73
2023/02/16 04:50:00;;;;;;;25.63;12.67;;;0.80;99.90;;;;;;5052059;28;20029;-73
2023/02/16 04:52:26;;;;;;;30.77;13.30;;;0.70;99.90;;;;;;5052308;28;20032;-73
2023/02/16 04:54:51;;;;;;;24.27;11.27;;;0.80;99.90;;;;;;5052337;28;20036;-73
2023/02/16 04:57:18;;;;;;;26.20;11.80;;;0.80;99.90;;;;;;5050422;28;20636;-73
2023/02/16 04:59:44;;;;;;;29.43;13.47;;;0.90;99.90;;;;;;5051019;28;20386;-73
2023/02/16 05:02:09;;;;;;;26.37;12.83;;;0.90;99.90;;;;;;5049742;28;20029;-73
2023/02/16 05:04:35;;;;;;;25.53;12.13;;;0.80;99.90;;;;;;5052015;28;20040;-73
2023/02/16 05:07:00;;;;;;;28.00;12.50;;;0.80;99.90;;;;;;5050386;28;20047;-74
2023/02/16 05:09:26;;;;;;;27.63;13.13;;;0.80;99.90;;;;;;5050763;28;20060;-73
2023/02/16 05:14:42;;;;;;;24.67;12.43;;;0.80;99.90;;;;;;5052006;28;20036;-74
2023/02/16 05:17:20;;;;;;;18.55;9.55;;;0.80;99.90;;;;;;5051476;28;20025;-74
2023/02/16 05:19:49;;;;;;;24.53;12.07;;;0.80;99.90;;;;;;5050946;28;20082;-74
2023/02/16 05:22:15;;;;;;;26.47;12.63;;;0.80;99.90;;;;;;5050159;28;20029;-73
2023/02/16 05:24:41;;;;;;;24.90;12.27;;;0.80;99.90;;;;;;5052059;28;20029;-74
2023/02/16 05:27:12;;;;;;;27.13;12.77;;;0.80;99.90;;;;;;5050205;28;20036;-74
2023/02/16 05:29:37;;;;;;;30.83;13.10;;;0.80;99.90;;;;;;5051717;28;20029;-74
2023/02/16 05:32:03;;;;;;;32.17;13.23;;;0.90;99.90;;;;;;5049841;28;20031;-75
2023/02/16 05:34:29;;;;;;;22.87;12.40;;;0.80;99.90;;;;;;5051606;28;20382;-74
2023/02/16 05:36:55;;;;;;;23.37;10.87;;;0.80;99.90;;;;;;5051877;28;20053;-73
2023/02/16 05:39:21;;;;;;;24.80;12.20;;;0.80;99.90;;;;;;5050963;28;20143;-74
2023/02/16 05:41:47;;;;;;;28.50;11.27;;;0.80;99.90;;;;;;5050487;28;20075;-73
2023/02/16 05:44:13;;;;;;;28.03;11.43;;;0.80;99.90;;;;;;5050728;28;20453;-74
2023/02/16 05:46:39;;;;;;;25.27;11.73;;;0.80;99.90;;;;;;5051666;28;20025;-74
2023/02/16 05:49:06;;;;;;;23.77;11.77;;;0.80;99.90;;;;;;5049806;28;20083;-74
2023/02/16 05:51:32;;;;;;;25.13;12.03;;;0.80;99.90;;;;;;5050528;28;20032;-74
2023/02/16 05:53:58;;;;;;;24.63;11.80;;;0.80;99.90;;;;;;5050552;28;20111;-73
2023/02/16 05:56:25;;;;;;;26.80;12.20;;;0.80;99.90;;;;;;5049582;28;20025;-74
2023/02/16 05:58:51;;;;;;;25.67;11.80;;;0.80;99.90;;;;;;5051492;28;20060;-73
2023/02/16 06:01:17;;;;;;;25.83;12.30;;;0.80;99.90;;;;;;5050915;28;20065;-74
2023/02/16 06:03:42;;;;;;;31.23;13.00;;;0.80;99.90;;;;;;5050161;28;20363;-73
2023/02/16 06:06:08;;;;;;;37.43;12.83;;;0.70;99.90;;;;;;5049246;28;20078;-74
2023/02/16 06:08:35;;;;;;;29.43;12.73;;;0.80;99.90;;;;;;5050147;28;20486;-73
2023/02/16 06:11:01;;;;;;;25.93;12.33;;;0.70;99.90;;;;;;5051624;28;20056;-75
2023/02/16 06:13:27;;;;;;;26.47;12.83;;;0.80;99.90;;;;;;5051490;28;20052;-74
2023/02/16 06:15:55;;;;;;;32.67;13.57;;;0.80;99.90;;;;;;5055274;28;20021;-73
2023/02/16 06:18:22;;;;;;;31.93;13.97;;;0.80;99.90;;;;;;5052975;28;20579;-75
2023/02/16 06:20:48;;;;;;;28.20;12.73;;;0.70;99.90;;;;;;5053836;28;20474;-73
2023/02/16 06:23:14;;;;;;;26.77;12.33;;;0.70;99.90;;;;;;5054333;28;20025;-73
2023/02/16 06:25:44;;;;;;;26.80;13.40;;;0.70;99.90;;;;;;5053883;28;20021;-75
2023/02/16 06:28:10;;;;;;;27.97;12.30;;;0.80;99.90;;;;;;5053177;28;20029;-75
2023/02/16 06:30:36;;;;;;;27.80;12.63;;;0.80;99.90;;;;;;5053612;28;20378;-74
2023/02/16 06:33:02;;;;;;;28.33;12.93;;;0.80;99.90;;;;;;5054828;28;20060;-74
2023/02/16 06:35:28;;;;;;;28.17;12.70;;;0.80;99.90;;;;;;5052691;28;20443;-74
2023/02/16 06:37:54;;;;;;;29.90;13.20;;;0.80;99.90;;;;;;5053160;28;20132;-74
2023/02/16 06:40:20;;;;;;;32.10;13.03;;;0.80;99.90;;;;;;5052403;28;20036;-74
2023/02/16 06:42:45;;;;;;;25.37;11.73;;;0.80;99.90;;;;;;5053103;28;20462;-73
2023/02/16 06:45:11;;;;;;;25.23;12.50;;;0.80;99.90;;;;;;5052135;28;20132;-73
2023/02/16 06:47:37;;;;;;;31.00;13.60;;;0.70;99.90;;;;;;5053143;28;20039;-74
2023/02/16 06:50:05;;;;;;;36.93;13.73;;;0.70;99.90;;;;;;5052940;28;20056;-75
2023/02/16 06:52:30;;;;;;;31.30;13.50;;;0.70;99.90;;;;;;5052838;28;20032;-74
2023/02/16 06:54:56;;;;;;;31.63;13.77;;;0.70;99.90;;;;;;5053103;28;20025;-75
2023/02/16 06:57:22;;;;;;;31.63;13.33;;;0.80;99.90;;;;;;5052389;28;20036;-74
2023/02/16 06:59:48;;;;;;;28.07;12.63;;;0.80;99.90;;;;;;5053239;28;20037;-74
2023/02/16 07:02:13;;;;;;;26.60;12.17;;;0.80;99.90;;;;;;5052494;28;20123;-74
2023/02/16 07:04:39;;;;;;;36.00;13.53;;;0.90;99.90;;;;;;5054197;28;20535;-74
2023/02/16 07:07:04;;;;;;;34.90;13.67;;;1.00;99.90;;;;;;5052792;28;20033;-77
2023/02/16 07:09:30;;;;;;;26.00;13.30;;;0.90;99.90;;;;;;5053395;28;20033;-75
2023/02/16 07:11:56;;;;;;;27.63;12.67;;;0.90;99.90;;;;;;5052850;28;20478;-75
2023/02/16 07:14:22;;;;;;;30.10;13.57;;;1.00;99.90;;;;;;5052217;28;20075;-75
2023/02/16 07:16:47;;;;;;;27.07;12.63;;;1.00;99.90;;;;;;5052623;28;20025;-74
2023/02/16 07:19:13;;;;;;;32.90;14.27;;;1.00;99.90;;;;;;5051811;28;20454;-74
2023/02/16 07:21:39;;;;;;;32.43;13.70;;;1.00;99.90;;;;;;5053585;28;20037;-74
2023/02/16 07:24:05;;;;;;;27.60;13.97;;;1.10;99.90;;;;;;5052336;28;20025;-74
2023/02/16 07:26:30;;;;;;;32.83;14.23;;;1.10;99.90;;;;;;5051875;28;20370;-74
2023/02/16 07:28:56;;;;;;;31.33;13.63;;;1.10;99.90;;;;;;5053456;28;20029;-74
2023/02/16 07:31:25;;;;;;;30.50;14.20;;;1.10;99.90;;;;;;5051635;28;20025;-74
2023/02/16 07:33:50;;;;;;;30.63;14.10;;;1.20;99.90;;;;;;5052312;28;20025;-74
2023/02/16 07:36:16;;;;;;;31.47;13.73;;;1.30;99.90;;;;;;5051365;28;20049;-74
2023/02/16 07:38:42;;;;;;;28.07;12.90;;;1.20;99.90;;;;;;5052109;28;20084;-74
2023/02/16 07:41:08;;;;;;;31.07;14.37;;;1.20;99.90;;;;;;5051997;28;20040;-76
2023/02/16 07:43:34;;;;;;;31.47;14.80;;;1.30;99.90;;;;;;5051830;28;20033;-74
2023/02/16 07:46:00;;;;;;;31.40;13.30;;;1.30;99.90;;;;;;5052127;28;20025;-74
2023/02/16 07:48:25;;;;;;;25.60;13.40;;;1.30;99.90;;;;;;5051210;28;20082;-74
2023/02/16 07:50:51;;;;;;;27.50;12.57;;;1.30;99.90;;;;;;5051912;28;20029;-74
2023/02/16 07:53:16;;;;;;;28.00;12.83;;;1.30;99.90;;;;;;5051596;28;20021;-74
2023/02/16 07:55:44;;;;;;;30.63;13.87;;;1.30;99.90;;;;;;5053619;28;20079;-74
2023/02/16 07:58:09;;;;;;;26.80;13.03;;;1.30;99.90;;;;;;5051791;28;20033;-76
2023/02/16 08:00:35;;;;;;;29.33;13.53;;;1.30;99.90;;;;;;5051786;28;20108;-74
2023/02/16 08:03:01;;;;;;;28.87;12.50;;;1.40;99.90;;;;;;5052055;28;20170;-74
2023/02/16 08:05:27;;;;;;;32.83;14.27;;;1.40;99.90;;;;;;5051398;28;20040;-74
2023/02/16 08:07:53;;;;;;;30.43;14.20;;;1.40;99.90;;;;;;5052049;28;20037;-74
2023/02/16 08:10:19;;;;;;;30.57;14.10;;;1.40;99.90;;;;;;5051186;28;20421;-74
2023/02/16 08:12:45;;;;;;;29.43;14.10;;;1.40;99.90;;;;;;5052066;28;20021;-74
2023/02/16 08:15:10;;;;;;;28.93;13.27;;;1.40;99.90;;;;;;5052715;28;20386;-75
2023/02/16 08:17:37;;;;;;;32.97;14.33;;;1.50;99.90;;;;;;5051546;28;20554;-75
2023/02/16 08:20:04;;;;;;;33.97;14.77;;;1.60;99.90;;;;;;5052955;28;20098;-75
2023/02/16 08:22:29;;;;;;;34.07;15.30;;;1.60;99.90;;;;;;5052247;28;20597;-75
2023/02/16 08:24:55;;;;;;;33.53;14.77;;;1.60;99.90;;;;;;5052853;28;20032;-75
2023/02/16 08:27:21;;;;;;;33.37;14.43;;;1.60;99.90;;;;;;5052174;28;20347;-75
2023/02/16 08:29:46;;;;;;;29.40;14.57;;;1.70;99.90;;;;;;5052980;28;20021;-75
2023/02/16 08:32:12;;;;;;;34.77;14.47;;;1.70;99.90;;;;;;5050814;28;20032;-78
2023/02/16 08:34:38;;;;;;;31.50;14.27;;;1.80;99.90;;;;;;5052592;28;20025;-75
2023/02/16 08:37:04;;;;;;;30.13;13.77;;;1.90;99.90;;;;;;5050243;28;20523;-75
2023/02/16 08:39:31;;;;;;;35.37;14.73;;;1.80;99.90;;;;;;5050692;28;20127;-75
2023/02/16 08:41:59;;;;;;;30.27;14.07;;;1.90;99.90;;;;;;5051100;28;20036;-75
2023/02/16 08:44:26;;;;;;;29.33;14.33;;;1.90;99.90;;;;;;5051612;28;20025;-75
2023/02/16 08:46:54;;;;;;;34.30;15.03;;;1.90;99.90;;;;;;5050899;28;20040;-75
2023/02/16 08:49:21;;;;;;;32.87;14.57;;;2.00;99.90;;;;;;5050810;28;20374;-75
2023/02/16 08:51:50;;;;;;;34.17;14.80;;;2.00;99.90;;;;;;5051078;28;20035;-75
2023/02/16 08:54:20;;;;;;;32.97;14.53;;;2.00;99.90;;;;;;5050486;28;20025;-76
2023/02/16 08:56:46;;;;;;;30.60;15.40;;;2.00;99.90;;;;;;5052449;28;20025;-75
2023/02/16 08:59:17;;;;;;;31.20;14.33;;;2.10;99.90;;;;;;5050738;28;20080;-77
2023/02/16 09:01:43;;;;;;;32.97;14.77;;;2.00;99.90;;;;;;5046210;28;20033;-75
2023/02/16 09:04:10;;;;;;;34.23;15.27;;;2.00;99.90;;;;;;5055332;28;20096;-75
2023/02/16 09:06:38;;;;;;;31.23;15.70;;;2.00;99.90;;;;;;5049228;28;20040;-75
2023/02/16 09:09:04;;;;;;;29.47;14.47;;;2.00;99.90;;;;;;5053982;28;20040;-76
2023/02/16 09:11:30;;;;;;;34.13;15.87;;;2.00;99.90;;;;;;5050880;28;20017;-77
2023/02/16 09:13:56;;;;;;;33.20;15.07;;;2.00;99.90;;;;;;5051664;28;20029;-75
2023/02/16 09:16:23;;;;;;;38.23;16.07;;;2.10;99.90;;;;;;5063264;28;20021;-75
2023/02/16 09:18:49;;;;;;;35.83;16.57;;;2.20;99.90;;;;;;5053643;28;20033;-76
2023/02/16 09:21:24;;;;;;;39.10;17.90;;;2.20;99.90;;;;;;5053804;28;20071;-78
2023/02/16 09:23:53;;;;;;;36.70;16.07;;;2.20;99.90;;;;;;5058102;28;20028;-76
2023/02/16 09:26:20;;;;;;;33.43;14.97;;;2.30;99.90;;;;;;5064473;28;20074;-79
2023/02/16 09:28:47;;;;;;;34.70;17.00;;;2.30;99.90;;;;;;5061086;28;20108;-78
2023/02/16 09:31:13;;;;;;;35.43;17.20;;;2.40;99.90;;;;;;5057482;28;20073;-83
2023/02/16 09:33:40;;;;;;;35.30;16.17;;;2.40;99.90;;;;;;5054168;28;20029;-79
2023/02/16 09:36:08;;;;;;;34.20;16.37;;;2.50;99.90;;;;;;5054167;28;20051;-77
2023/02/16 09:38:35;;;;;;;36.50;16.23;;;2.60;99.90;;;;;;5054609;28;20029;-77
2023/02/16 09:41:40;;;;;;;34.77;16.20;;;2.60;99.90;;;;;;5055930;28;20029;-78
2023/02/16 09:44:27;;;;;;;34.57;15.70;;;2.70;99.90;;;;;;5061475;28;20466;-79
2023/02/16 09:46:55;;;;;;;34.03;16.67;;;2.80;99.90;;;;;;5051233;28;20466;-78
2023/02/16 09:49:28;;;;;;;34.37;15.87;;;2.80;99.90;;;;;;5054104;28;20033;-78
2023/02/16 09:52:27;;;;;;;32.53;16.17;;;2.90;99.90;;;;;;5054764;28;20048;-78
2023/02/16 09:54:56;;;;;;;35.07;16.80;;;3.00;99.90;;;;;;5053981;28;20120;-78
2023/02/16 09:57:34;;;;;;;35.47;16.70;;;3.10;99.90;;;;;;5054084;28;20025;-75
2023/02/16 10:00:23;;;;;;;37.43;17.73;;;3.20;99.90;;;;;;5067745;28;20025;-75
2023/02/16 10:03:12;;;;;;;35.57;16.20;;;3.30;99.90;;;;;;5066806;28;20024;-77
2023/02/16 10:06:05;;;;;;;38.10;16.53;;;3.40;99.90;;;;;;5062617;28;20198;-79
2023/02/16 10:08:44;;;;;;;33.30;16.40;;;3.50;99.90;;;;;;5064117;28;20482;-79
2023/02/16 10:14:50;;;;;;;30.50;15.50;;;3.60;99.90;;;;;;5063184;28;20502;-79
2023/02/16 10:17:19;;;;;;;30.07;14.97;;;3.70;99.90;;;;;;5065891;28;20032;-84
2023/02/16 10:19:59;;;;;;;32.47;15.70;;;3.80;99.90;;;;;;5046231;28;20383;-78
2023/02/16 10:22:47;;;;;;;29.73;15.13;;;3.90;99.90;;;;;;5035719;28;20021;-77
2023/02/16 10:25:19;;;;;;;33.27;15.00;;;4.00;99.90;;;;;;5061030;28;20382;-80
2023/02/16 10:27:50;;;;;;;32.33;16.93;;;4.10;99.90;;;;;;5043787;28;20121;-78
2023/02/16 10:30:20;;;;;;;33.63;16.30;;;4.20;99.90;;;;;;5062360;28;20028;-78
2023/02/16 10:32:55;;;;;;;30.53;15.17;;;4.40;99.90;;;;;;5059291;28;20155;-76
2023/02/16 10:35:45;;;;;;;29.47;15.33;;;4.50;99.90;;;;;;5033191;28;20567;-76
2023/02/16 10:38:32;;;;;;;30.70;14.50;;;4.60;99.90;;;;;;5044724;28;20049;-75
2023/02/16 10:41:17;;;;;;;29.60;14.43;;;4.70;99.90;;;;;;5038314;28;20029;-77
2023/02/16 10:43:50;;;;;;;29.03;14.10;;;4.80;99.90;;;;;;5064205;28;20033;-76
2023/02/16 10:46:37;;;;;;;25.50;14.00;;;5.00;99.90;;;;;;5063767;28;20036;-78
2023/02/16 10:49:02;;;;;;;28.97;14.73;;;5.10;99.90;;;;;;5056526;28;20553;-76
2023/02/16 10:51:36;;;;;;;30.30;14.53;;;5.20;99.90;;;;;;5066311;28;20100;-76
2023/02/16 10:54:11;;;;;;;27.37;13.90;;;5.40;99.90;;;;;;5051144;28;20031;-77
2023/02/16 10:56:45;;;;;;;28.77;14.20;;;5.50;99.90;;;;;;5047779;28;20021;-78
2023/02/16 10:59:21;;;;;;;25.67;12.20;;;5.70;99.90;;;;;;5052350;28;20039;-78
2023/02/16 11:01:49;;;;;;;27.67;13.53;;;5.80;99.90;;;;;;5053261;28;20028;-76
2023/02/16 11:04:36;;;;;;;28.10;13.10;;;6.00;99.90;;;;;;5053669;28;20036;-81
2023/02/16 11:07:04;;;;;;;26.87;13.10;;;6.20;99.90;;;;;;5055424;28;20478;-79
2023/02/16 11:09:31;;;;;;;24.03;12.53;;;6.30;99.90;;;;;;5053812;28;20024;-76
2023/02/16 11:11:57;;;;;;;23.43;11.70;;;6.50;99.90;;;;;;5052417;28;20029;-75
2023/02/16 11:14:28;;;;;;;23.53;12.23;;;6.60;99.90;;;;;;5052494;28;20119;-76
2023/02/16 11:17:11;;;;;;;25.25;11.82;;;6.80;99.90;;;;;;5053643;28;20112;-77
2023/02/16 11:19:40;;;;;;;22.70;12.07;;;6.90;99.90;;;;;;5039645;28;20037;-75
2023/02/16 11:22:08;;;;;;;26.53;12.17;;;6.90;99.90;;;;;;5053941;28;20074;-76
2023/02/16 11:24:37;;;;;;;21.77;11.50;;;7.00;99.90;;;;;;5053011;28;20035;-77
2023/02/16 11:27:04;;;;;;;23.10;12.03;;;7.10;99.90;;;;;;5053734;28;20043;-77
2023/02/16 11:29:31;;;;;;;26.27;12.30;;;7.20;99.90;;;;;;5052198;28;20029;-76
2023/02/16 11:31:57;;;;;;;27.97;12.63;;;7.30;99.90;;;;;;5063321;28;20025;-76
2023/02/16 11:34:33;;;;;;;24.73;12.43;;;7.50;99.90;;;;;;5053459;28;20043;-76
2023/02/16 11:37:26;;;;;;;20.87;11.20;;;7.60;99.90;;;;;;5050501;28;20502;-76
2023/02/16 11:39:58;;;;;;;20.57;10.67;;;7.80;99.90;;;;;;5077988;28;20420;-75
2023/02/16 11:42:45;;;;;;;20.93;11.10;;;7.90;99.90;;;;;;5059873;28;20120;-75
2023/02/16 11:45:33;;;;;;;22.17;11.87;;;8.00;99.90;;;;;;5057713;28;20099;-80
2023/02/16 11:48:25;;;;;;;19.38;10.52;;;8.20;99.90;;;;;;5063393;28;20378;-75
2023/02/16 11:51:01;;;;;;;20.98;11.15;;;8.40;99.90;;;;;;5056390;28;20071;-77
2023/02/16 11:53:31;;;;;;;19.08;10.20;;;8.60;99.90;;;;;;5072489;28;20120;-81
2023/02/16 11:56:22;;;;;;;20.63;9.98;;;8.70;99.90;;;;;;5073114;28;20087;-80
2023/02/16 11:59:15;;;;;;;18.70;10.20;;;8.90;99.90;;;;;;5066241;28;20112;-79
2023/02/16 12:01:59;;;;;;;20.88;10.52;;;9.10;99.90;;;;;;5060006;28;20029;-79
2023/02/16 12:05:06;;;;;;;21.38;10.02;;;9.10;99.90;;;;;;5052342;28;20059;-78
2023/02/16 12:07:56;;;;;;;18.92;9.55;;;9.20;99.90;;;;;;5039816;28;20040;-78
2023/02/16 12:10:22;;;;;;;18.65;9.38;;;9.30;99.90;;;;;;5064754;28;20031;-78
2023/02/16 12:12:51;;;;;;;20.98;9.95;;;9.40;99.90;;;;;;5053904;28;20024;-76
2023/02/16 12:15:24;;;;;;;19.00;9.43;;;9.50;99.90;;;;;;5052505;28;20437;-78
2023/02/16 12:18:22;;;;;;;16.95;9.50;;;9.60;99.90;;;;;;5060569;28;20025;-76
2023/02/16 12:20:57;;;;;;;16.48;9.70;;;9.70;99.90;;;;;;5060307;28;20044;-76
2023/02/16 12:23:52;;;;;;;19.90;10.23;;;9.90;99.90;;;;;;5052520;28;20040;-75
2023/02/16 12:26:21;;;;;;;18.40;9.48;;;10.00;99.90;;;;;;5052554;28;20028;-75
2023/02/16 12:29:10;;;;;;;19.60;9.65;;;10.00;99.90;;;;;;5062076;28;20036;-76
2023/02/16 12:31:56;;;;;;;16.88;8.82;;;10.00;99.90;;;;;;5070857;28;20107;-74
2023/02/16 12:34:44;;;;;;;18.98;9.85;;;10.00;99.90;;;;;;5058883;28;20029;-77
2023/02/16 12:37:21;;;;;;;19.67;8.98;;;10.00;99.90;;;;;;5054634;28;20045;-77
2023/02/16 12:40:26;;;;;;;17.67;9.20;;;10.00;99.90;;;;;;5054910;28;20139;-77
2023/02/16 12:43:06;;;;;;;18.15;8.65;;;10.00;99.90;;;;;;5054466;28;20025;-77
2023/02/16 12:45:36;;;;;;;16.63;8.27;;;10.10;99.90;;;;;;5058454;28;20028;-76
2023/02/16 12:48:29;;;;;;;16.23;8.55;;;10.20;99.90;;;;;;5061161;28;20499;-76
2023/02/16 12:50:56;;;;;;;17.23;8.68;;;10.60;99.90;;;;;;5053895;28;20025;-77
2023/02/16 12:53:29;;;;;;;18.08;8.00;;;10.80;99.90;;;;;;5065831;28;20028;-77
2023/02/16 12:56:04;;;;;;;16.33;8.20;;;11.00;99.90;;;;;;5051168;28;20029;-76
2023/02/16 12:58:34;;;;;;;16.67;8.10;;;11.30;99.90;;;;;;5052017;28;20479;-74
2023/02/16 13:01:17;;;;;;;17.02;7.80;;;11.60;99.90;;;;;;5070804;28;20078;-76
2023/02/16 13:04:01;;;;;;;15.18;7.20;;;12.50;99.90;;;;;;5064902;28;20028;-77
2023/02/16 13:06:40;;;;;;;13.45;6.82;;;12.30;99.90;;;;;;5050872;28;20032;-77
2023/02/16 13:09:24;;;;;;;14.07;6.72;;;12.00;99.90;;;;;;5071878;28;20041;-77
2023/02/16 13:12:23;;;;;;;18.13;7.30;;;12.50;99.90;;;;;;5071040;28;20055;-77
2023/02/16 13:14:59;;;;;;;10.40;6.25;;;13.20;99.90;;;;;;5055272;28;20025;-78
2023/02/16 13:17:37;;;;;;;15.02;6.47;;;13.50;99.90;;;;;;5050714;28;20028;-77
2023/02/16 13:20:02;;;;;;;12.10;6.47;;;13.60;99.90;;;;;;5051326;28;20040;-77
2023/02/16 13:22:45;;;;;;;10.75;6.20;;;13.30;99.90;;;;;;5052450;28;20029;-74
2023/02/16 13:26:02;;;;;;;10.95;5.80;;;13.10;99.90;;;;;;5072922;28;20025;-75
2023/02/16 13:28:33;;;;;;;10.82;5.03;;;13.10;99.70;;;;;;5053761;28;20174;-75
2023/02/16 13:31:21;;;;;;;9.57;5.38;;;13.10;99.40;;;;;;5056683;28;20037;-75
2023/02/16 13:34:20;;;;;;;8.27;5.10;;;13.10;98.50;;;;;;5076245;28;20070;-75
2023/02/16 13:37:00;;;;;;;12.82;5.13;;;13.60;97.10;;;;;;5076148;28;20076;-75
2023/02/16 13:39:35;;;;;;;14.13;4.70;;;13.50;97.20;;;;;;5075642;28;20036;-77
2023/02/16 13:42:28;;;;;;;10.93;4.93;;;13.30;97.10;;;;;;5074939;28;20656;-75
2023/02/16 13:45:00;;;;;;;9.77;5.40;;;13.20;96.30;;;;;;5057817;28;20029;-75
2023/02/16 13:47:30;;;;;;;11.20;5.10;;;13.00;96.40;;;;;;5069694;28;20462;-75